Time;durP1;ratioP1;P1;durP2;ratioP2;P2;SDS_P1;SDS_P2;PMS_P1;PMS_P2;Temp;Humidity;BMP_temperature;BMP_pressure;BME280_temperature;BME280_humidity;BME280_pressure;Samples;Min_cycle;Max_cycle;Signal;HPM_P1;HPM_P2
2023/05/09 00:01:57;;;;;;;1.83;1.73;;;14.20;99.90;;;;;;5054461;28;20180;-70
2023/05/09 00:04:23;;;;;;;1.70;1.47;;;14.20;99.90;;;;;;5054443;28;20189;-70
2023/05/09 00:06:49;;;;;;;2.37;2.27;;;14.30;99.90;;;;;;5054024;28;20421;-70
2023/05/09 00:09:15;;;;;;;0.70;0.70;;;14.30;99.90;;;;;;5054436;28;20735;-70
2023/05/09 00:11:40;;;;;;;2.47;2.00;;;14.30;99.90;;;;;;5054349;28;20234;-70
2023/05/09 00:14:06;;;;;;;2.40;1.20;;;14.30;99.90;;;;;;5054166;28;20223;-70
2023/05/09 00:16:32;;;;;;;1.13;1.07;;;14.30;99.90;;;;;;5054210;28;20188;-70
2023/05/09 00:18:59;;;;;;;2.10;2.00;;;14.30;99.90;;;;;;5053987;28;20420;-70
2023/05/09 00:21:24;;;;;;;1.13;1.13;;;14.30;99.90;;;;;;5053959;28;20409;-70
2023/05/09 00:23:50;;;;;;;2.30;2.10;;;14.30;99.90;;;;;;5054138;28;20405;-70
2023/05/09 00:26:16;;;;;;;1.87;1.70;;;14.30;99.90;;;;;;5053894;28;20662;-70
2023/05/09 00:28:41;;;;;;;1.90;1.80;;;14.30;99.90;;;;;;5053754;28;20174;-70
2023/05/09 00:31:07;;;;;;;1.63;1.53;;;14.30;99.90;;;;;;5053883;28;20412;-70
2023/05/09 00:33:33;;;;;;;0.60;0.60;;;14.30;99.90;;;;;;5053786;28;20168;-70
2023/05/09 00:35:59;;;;;;;1.90;1.80;;;14.30;99.90;;;;;;5053868;28;20197;-70
2023/05/09 00:38:24;;;;;;;1.03;1.03;;;14.30;99.90;;;;;;5053618;28;20196;-70
2023/05/09 00:40:50;;;;;;;2.20;1.53;;;14.30;99.90;;;;;;5053696;28;20208;-70
2023/05/09 00:43:16;;;;;;;1.37;1.27;;;14.30;99.90;;;;;;5054377;28;20249;-70
2023/05/09 00:45:44;;;;;;;0.60;0.60;;;14.10;99.90;;;;;;5053769;28;20185;-70
2023/05/09 00:48:10;;;;;;;1.87;1.70;;;14.00;99.90;;;;;;5053622;28;20405;-70
2023/05/09 00:50:36;;;;;;;1.13;1.10;;;13.90;99.90;;;;;;5053460;28;20523;-70
2023/05/09 00:53:03;;;;;;;0.80;0.80;;;13.90;99.90;;;;;;5053629;28;20174;-70
2023/05/09 00:55:29;;;;;;;0.70;0.70;;;13.80;99.90;;;;;;5052160;28;20177;-70
2023/05/09 00:57:55;;;;;;;2.20;2.00;;;13.90;99.90;;;;;;5053216;28;20451;-70
2023/05/09 01:00:21;;;;;;;2.90;2.50;;;13.80;99.90;;;;;;5053453;28;20397;-70
2023/05/09 01:02:49;;;;;;;1.23;1.07;;;13.80;99.90;;;;;;5053390;28;20166;-70
2023/05/09 01:05:15;;;;;;;1.17;1.07;;;13.80;99.90;;;;;;5053542;28;20170;-70
2023/05/09 01:08:08;;;;;;;1.00;1.00;;;13.80;99.90;;;;;;5053156;28;20597;-70
2023/05/09 01:10:36;;;;;;;0.70;0.70;;;13.60;99.90;;;;;;5053340;28;20539;-70
2023/05/09 01:13:14;;;;;;;1.77;1.67;;;13.40;99.90;;;;;;5053322;28;20405;-70
2023/05/09 01:15:53;;;;;;;0.70;0.70;;;13.30;99.90;;;;;;5053498;28;20427;-70
2023/05/09 01:18:39;;;;;;;0.67;0.67;;;13.30;99.90;;;;;;5053000;28;20479;-70
2023/05/09 01:21:10;;;;;;;0.40;0.40;;;13.40;99.90;;;;;;5053187;28;20389;-70
2023/05/09 01:23:42;;;;;;;1.40;1.30;;;13.40;99.90;;;;;;5053386;28;20454;-70
2023/05/09 01:26:33;;;;;;;1.30;1.30;;;13.40;99.90;;;;;;5053007;28;20451;-70
2023/05/09 01:29:26;;;;;;;0.70;0.57;;;13.30;99.90;;;;;;5051648;28;20913;-70
2023/05/09 01:31:53;;;;;;;1.90;1.80;;;13.30;99.90;;;;;;5053314;28;20400;-70
2023/05/09 01:34:22;;;;;;;0.60;0.60;;;13.40;99.90;;;;;;5053260;28;20424;-70
2023/05/09 01:36:50;;;;;;;1.23;1.13;;;13.40;99.90;;;;;;5052732;28;20478;-70
2023/05/09 01:39:18;;;;;;;0.73;0.73;;;13.30;99.90;;;;;;5052914;28;20445;-70
2023/05/09 01:41:44;;;;;;;2.00;1.90;;;13.30;99.90;;;;;;5052987;28;20828;-70
2023/05/09 01:44:12;;;;;;;0.80;0.80;;;13.40;99.90;;;;;;5053099;28;20921;-70
2023/05/09 01:46:39;;;;;;;1.53;1.43;;;13.40;99.90;;;;;;5053201;28;20486;-70
2023/05/09 01:49:07;;;;;;;0.90;0.77;;;13.40;99.90;;;;;;5055544;28;20424;-70
2023/05/09 01:51:35;;;;;;;0.90;0.80;;;13.40;99.90;;;;;;5057073;28;20891;-70
2023/05/09 01:54:01;;;;;;;1.13;1.07;;;13.40;99.90;;;;;;5057009;28;20431;-70
2023/05/09 01:56:27;;;;;;;1.17;1.17;;;13.50;99.90;;;;;;5056683;28;20456;-70
2023/05/09 01:58:54;;;;;;;1.00;1.00;;;13.50;99.90;;;;;;5056571;28;20528;-70
2023/05/09 02:01:21;;;;;;;1.20;1.20;;;13.60;99.90;;;;;;5056928;28;20405;-70
2023/05/09 02:03:51;;;;;;;0.90;0.90;;;13.60;99.90;;;;;;5056741;28;20413;-70
2023/05/09 02:06:19;;;;;;;1.50;1.40;;;13.60;99.90;;;;;;5056618;28;20486;-70
2023/05/09 02:08:46;;;;;;;1.23;1.13;;;13.60;99.90;;;;;;5056354;28;20820;-70
2023/05/09 02:11:11;;;;;;;2.07;1.97;;;13.60;99.90;;;;;;5056604;28;20415;-70
2023/05/09 02:13:37;;;;;;;1.63;1.33;;;13.60;99.90;;;;;;5056565;28;20824;-70
2023/05/09 02:16:04;;;;;;;1.13;0.97;;;13.60;99.90;;;;;;5056531;28;20643;-70
2023/05/09 02:18:31;;;;;;;1.67;1.57;;;13.60;99.90;;;;;;5056341;28;20194;-70
2023/05/09 02:20:57;;;;;;;1.30;0.97;;;13.60;99.90;;;;;;5056445;28;20400;-70
2023/05/09 02:23:22;;;;;;;4.10;2.30;;;13.50;99.90;;;;;;5056242;28;20423;-70
2023/05/09 02:25:48;;;;;;;1.90;1.60;;;13.50;99.90;;;;;;5056266;28;20187;-70
2023/05/09 02:28:15;;;;;;;1.20;1.10;;;13.50;99.90;;;;;;5056145;28;20178;-70
2023/05/09 02:30:44;;;;;;;0.80;0.80;;;13.60;99.90;;;;;;5056291;28;20794;-70
2023/05/09 02:33:11;;;;;;;3.23;2.20;;;13.60;99.90;;;;;;5056333;28;20397;-70
2023/05/09 02:35:38;;;;;;;1.73;1.10;;;13.30;99.90;;;;;;5056138;28;20410;-70
2023/05/09 02:38:05;;;;;;;1.63;1.53;;;13.50;99.90;;;;;;5055854;28;20448;-70
2023/05/09 02:40:32;;;;;;;2.00;1.10;;;13.40;99.90;;;;;;5056054;28;20404;-70
2023/05/09 02:42:57;;;;;;;1.50;1.40;;;13.40;99.90;;;;;;5056059;28;20869;-70
2023/05/09 02:45:23;;;;;;;1.30;1.20;;;13.10;99.90;;;;;;5055989;28;20415;-70
2023/05/09 02:47:49;;;;;;;1.00;1.00;;;13.30;99.90;;;;;;5055719;28;20178;-70
2023/05/09 02:50:14;;;;;;;1.73;1.60;;;13.30;99.90;;;;;;5055553;28;20437;-70
2023/05/09 02:52:40;;;;;;;1.20;1.10;;;13.20;99.90;;;;;;5055791;28;20537;-70
2023/05/09 02:55:06;;;;;;;1.40;1.40;;;13.10;99.90;;;;;;5055715;28;20178;-70
2023/05/09 02:57:32;;;;;;;2.77;2.50;;;13.40;99.90;;;;;;5055362;28;20252;-70
2023/05/09 02:59:59;;;;;;;2.67;2.47;;;13.10;99.90;;;;;;5054616;28;20398;-70
2023/05/09 03:02:24;;;;;;;1.17;1.17;;;13.10;99.90;;;;;;5054464;28;20815;-70
2023/05/09 03:04:50;;;;;;;1.03;0.93;;;13.00;99.90;;;;;;5055508;28;20451;-70
2023/05/09 03:07:16;;;;;;;1.50;1.40;;;13.00;99.90;;;;;;5055468;28;20520;-70
2023/05/09 03:09:41;;;;;;;2.47;1.80;;;13.00;99.90;;;;;;5052754;28;20232;-70
2023/05/09 03:12:07;;;;;;;1.27;1.20;;;12.90;99.90;;;;;;5055489;28;20534;-70
2023/05/09 03:14:33;;;;;;;4.97;4.17;;;12.80;99.90;;;;;;5055467;28;20199;-70
2023/05/09 03:16:58;;;;;;;2.80;2.53;;;12.80;99.90;;;;;;5053245;28;20551;-70
2023/05/09 03:19:24;;;;;;;1.90;1.40;;;12.80;99.90;;;;;;5055308;28;20171;-70
2023/05/09 03:21:50;;;;;;;1.93;1.37;;;12.80;99.90;;;;;;5055300;28;20640;-70
2023/05/09 03:24:15;;;;;;;3.00;1.90;;;12.70;99.90;;;;;;5055216;28;20216;-70
2023/05/09 03:26:41;;;;;;;1.43;1.33;;;12.70;99.90;;;;;;5055158;28;20243;-70
2023/05/09 03:29:06;;;;;;;1.43;1.33;;;12.70;99.90;;;;;;5055086;28;20173;-70
2023/05/09 03:31:33;;;;;;;2.93;2.83;;;12.60;99.90;;;;;;5055246;28;20253;-70
2023/05/09 03:33:59;;;;;;;2.73;1.93;;;12.60;99.90;;;;;;5053730;28;20676;-70
2023/05/09 03:36:25;;;;;;;1.80;1.70;;;12.70;99.90;;;;;;5054955;28;20425;-70
2023/05/09 03:38:50;;;;;;;1.33;1.27;;;12.70;99.90;;;;;;5054654;28;20352;-70
2023/05/09 03:41:17;;;;;;;2.17;2.07;;;12.70;99.90;;;;;;5054804;28;20162;-70
2023/05/09 03:43:43;;;;;;;2.20;2.00;;;12.70;99.90;;;;;;5054977;28;20218;-70
2023/05/09 03:46:08;;;;;;;2.00;1.90;;;12.70;99.90;;;;;;5054996;28;20425;-70
2023/05/09 03:48:34;;;;;;;2.80;1.57;;;12.70;99.90;;;;;;5054474;28;20578;-70
2023/05/09 03:51:01;;;;;;;1.37;1.30;;;12.70;99.90;;;;;;5054734;28;20587;-70
2023/05/09 03:53:27;;;;;;;2.00;1.70;;;12.70;99.90;;;;;;5054783;28;20257;-70
2023/05/09 03:55:52;;;;;;;1.27;1.27;;;12.70;99.90;;;;;;5054506;28;20835;-70
2023/05/09 03:58:18;;;;;;;1.63;1.53;;;12.70;99.90;;;;;;5054197;28;20193;-70
2023/05/09 04:00:44;;;;;;;2.60;2.50;;;12.70;99.90;;;;;;5054486;28;20248;-70
2023/05/09 04:03:10;;;;;;;2.10;1.90;;;12.80;99.90;;;;;;5054582;28;20173;-70
2023/05/09 04:05:36;;;;;;;2.97;2.73;;;12.80;99.90;;;;;;5054311;28;20393;-70
2023/05/09 04:08:02;;;;;;;1.40;1.40;;;12.80;99.90;;;;;;5054185;28;20637;-70
2023/05/09 04:10:29;;;;;;;1.87;1.77;;;12.80;99.90;;;;;;5054009;28;20439;-70
2023/05/09 04:12:55;;;;;;;5.70;1.97;;;12.80;99.90;;;;;;5054382;28;20415;-70
2023/05/09 04:15:21;;;;;;;3.60;2.43;;;12.80;99.90;;;;;;5054120;28;20401;-70
2023/05/09 04:17:46;;;;;;;1.63;1.53;;;12.80;99.90;;;;;;5053929;28;20459;-70
2023/05/09 04:20:12;;;;;;;1.10;1.10;;;12.90;99.90;;;;;;5054388;28;20166;-70
2023/05/09 04:22:38;;;;;;;1.83;1.73;;;12.90;99.90;;;;;;5054235;28;20236;-70
2023/05/09 04:25:04;;;;;;;1.27;1.20;;;12.90;99.90;;;;;;5054106;28;20188;-70
2023/05/09 04:27:29;;;;;;;2.03;1.83;;;12.90;99.90;;;;;;5053887;28;20221;-70
2023/05/09 04:29:55;;;;;;;2.40;2.20;;;12.80;99.90;;;;;;5054084;28;20480;-70
2023/05/09 04:32:21;;;;;;;1.83;1.73;;;12.80;99.90;;;;;;5054068;28;20181;-70
2023/05/09 04:34:47;;;;;;;1.13;1.13;;;12.90;99.90;;;;;;5054087;28;20177;-70
2023/05/09 04:37:12;;;;;;;2.77;2.57;;;13.00;99.90;;;;;;5053534;28;20448;-70
2023/05/09 04:39:38;;;;;;;1.53;1.30;;;13.10;99.90;;;;;;5053805;28;20177;-70
2023/05/09 04:42:04;;;;;;;1.50;1.43;;;13.20;99.90;;;;;;5053875;28;20224;-70
2023/05/09 04:44:30;;;;;;;0.80;0.80;;;13.20;99.90;;;;;;5053754;28;20177;-70
2023/05/09 04:46:56;;;;;;;3.17;2.63;;;13.20;99.90;;;;;;5053435;28;21003;-70
2023/05/09 04:49:22;;;;;;;0.70;0.70;;;13.30;99.90;;;;;;5053568;28;20424;-70
2023/05/09 04:51:48;;;;;;;1.00;0.93;;;13.30;99.90;;;;;;5053678;28;20902;-70
2023/05/09 04:54:14;;;;;;;1.53;0.50;;;13.30;99.90;;;;;;5053487;28;20162;-70
2023/05/09 04:56:40;;;;;;;1.73;1.20;;;13.40;99.90;;;;;;5053410;28;20417;-70
2023/05/09 04:59:05;;;;;;;2.60;2.30;;;13.40;99.90;;;;;;5053204;28;20202;-70
2023/05/09 05:01:31;;;;;;;1.00;1.00;;;13.50;99.90;;;;;;5053486;28;20212;-70
2023/05/09 05:03:57;;;;;;;0.70;0.70;;;13.60;99.90;;;;;;5053463;28;20241;-70
2023/05/09 05:06:22;;;;;;;3.23;1.40;;;13.60;99.90;;;;;;5053328;28;20190;-70
2023/05/09 05:08:48;;;;;;;0.87;0.87;;;13.70;99.90;;;;;;5053259;28;20166;-70
2023/05/09 05:11:14;;;;;;;1.30;1.30;;;13.70;99.90;;;;;;5053449;28;20225;-70
2023/05/09 05:13:39;;;;;;;1.27;1.27;;;13.70;99.90;;;;;;5053331;28;20168;-70
2023/05/09 05:16:05;;;;;;;1.70;1.60;;;13.70;99.90;;;;;;5053486;28;20198;-70
2023/05/09 05:18:30;;;;;;;1.53;1.00;;;13.70;99.90;;;;;;5053020;28;20221;-70
2023/05/09 05:20:56;;;;;;;0.83;0.83;;;13.80;99.90;;;;;;5053318;28;20174;-70
2023/05/09 05:23:22;;;;;;;1.10;1.00;;;13.80;99.90;;;;;;5052648;28;20523;-70
2023/05/09 05:25:47;;;;;;;1.67;1.57;;;13.70;99.90;;;;;;5053136;28;20279;-70
2023/05/09 05:28:13;;;;;;;1.30;1.30;;;13.80;99.90;;;;;;5053176;28;20186;-70
2023/05/09 05:30:40;;;;;;;1.33;1.33;;;13.90;99.90;;;;;;5053131;28;20170;-70
2023/05/09 05:33:05;;;;;;;1.57;1.13;;;14.00;99.90;;;;;;5053164;28;20178;-70
2023/05/09 05:35:31;;;;;;;1.27;1.27;;;14.10;99.90;;;;;;5052975;28;20458;-70
2023/05/09 05:37:56;;;;;;;1.20;1.20;;;14.20;99.90;;;;;;5053027;28;20244;-70
2023/05/09 05:40:22;;;;;;;1.13;1.07;;;14.20;99.90;;;;;;5053195;28;20173;-70
2023/05/09 05:42:48;;;;;;;0.87;0.87;;;14.30;99.90;;;;;;5053407;28;20169;-70
2023/05/09 05:45:13;;;;;;;1.13;0.80;;;14.40;99.90;;;;;;5053005;28;20224;-70
2023/05/09 05:47:39;;;;;;;0.40;0.40;;;14.60;99.90;;;;;;5052741;28;20190;-70
2023/05/09 05:50:10;;;;;;;2.30;2.10;;;14.80;99.90;;;;;;5052978;28;20273;-70
2023/05/09 05:52:37;;;;;;;0.57;0.57;;;15.10;99.90;;;;;;5053174;28;20207;-70
2023/05/09 05:55:03;;;;;;;0.87;0.87;;;15.30;99.90;;;;;;5052843;28;20409;-70
2023/05/09 05:57:29;;;;;;;0.80;0.80;;;15.40;99.90;;;;;;5052590;28;20459;-70
2023/05/09 05:59:54;;;;;;;1.47;1.37;;;15.60;99.90;;;;;;5052824;28;20415;-70
2023/05/09 06:02:20;;;;;;;1.07;1.07;;;15.80;99.90;;;;;;5052874;28;20174;-70
2023/05/09 06:04:45;;;;;;;2.30;1.83;;;16.10;99.90;;;;;;5052908;28;20177;-70
2023/05/09 06:07:12;;;;;;;0.83;0.70;;;16.20;99.90;;;;;;5052554;28;20284;-70
2023/05/09 06:09:38;;;;;;;1.20;1.10;;;16.30;99.90;;;;;;5052794;28;20191;-70
2023/05/09 06:12:05;;;;;;;1.13;1.13;;;16.40;99.90;;;;;;5052791;28;20403;-70
2023/05/09 06:14:31;;;;;;;0.40;0.40;;;16.30;99.90;;;;;;5052816;28;20171;-70
2023/05/09 06:17:00;;;;;;;0.70;0.70;;;16.30;99.90;;;;;;5052279;28;20443;-70
2023/05/09 06:19:26;;;;;;;0.60;0.60;;;16.20;99.90;;;;;;5052840;28;20173;-70
2023/05/09 06:21:51;;;;;;;0.50;0.50;;;16.30;99.90;;;;;;5052844;28;20536;-70
2023/05/09 06:24:17;;;;;;;0.70;0.70;;;16.20;99.90;;;;;;5052510;28;20256;-69
2023/05/09 06:26:43;;;;;;;1.17;0.93;;;16.10;99.90;;;;;;5050450;28;20194;-69
2023/05/09 06:29:09;;;;;;;0.77;0.77;;;15.90;99.90;;;;;;5051582;28;20170;-69
2023/05/09 06:31:37;;;;;;;0.50;0.50;;;15.80;99.90;;;;;;5051782;28;20168;-70
2023/05/09 06:34:03;;;;;;;0.80;0.80;;;15.80;99.90;;;;;;5053736;28;20408;-70
2023/05/09 06:36:31;;;;;;;1.60;1.50;;;15.70;99.90;;;;;;5056202;28;20535;-70
2023/05/09 06:38:56;;;;;;;0.50;0.50;;;15.60;99.90;;;;;;5055209;28;20444;-69
2023/05/09 06:41:22;;;;;;;2.57;1.33;;;15.50;99.90;;;;;;5055825;28;20416;-69
2023/05/09 06:43:48;;;;;;;0.70;0.70;;;15.40;99.90;;;;;;5054795;28;20170;-69
2023/05/09 06:46:14;;;;;;;0.90;0.63;;;15.40;99.90;;;;;;5056024;28;20428;-69
2023/05/09 06:48:39;;;;;;;1.03;0.80;;;15.30;99.90;;;;;;5056228;28;20185;-69
2023/05/09 06:51:05;;;;;;;0.93;0.93;;;15.20;99.90;;;;;;5055248;28;20630;-69
2023/05/09 06:53:30;;;;;;;0.83;0.83;;;15.20;99.90;;;;;;5055810;28;20257;-69
2023/05/09 06:55:56;;;;;;;0.60;0.60;;;15.20;99.90;;;;;;5054248;28;20277;-69
2023/05/09 06:58:22;;;;;;;17.47;1.23;;;15.30;99.90;;;;;;5055490;28;20208;-70
2023/05/09 07:00:48;;;;;;;0.70;0.70;;;15.40;99.90;;;;;;5055622;28;20232;-69
2023/05/09 07:03:14;;;;;;;2.00;1.70;;;15.50;99.90;;;;;;5055099;28;20416;-69
2023/05/09 07:05:40;;;;;;;0.67;0.67;;;15.70;99.90;;;;;;5056211;28;20162;-68
2023/05/09 07:08:06;;;;;;;0.93;0.93;;;15.90;99.90;;;;;;5055257;28;20879;-69
2023/05/09 07:10:31;;;;;;;0.60;0.60;;;16.10;99.90;;;;;;5055785;28;20170;-73
2023/05/09 07:12:57;;;;;;;0.53;0.40;;;16.30;99.90;;;;;;5055396;28;20400;-70
2023/05/09 07:15:23;;;;;;;2.00;1.90;;;16.40;99.90;;;;;;5055445;28;20541;-70
2023/05/09 07:17:48;;;;;;;0.60;0.60;;;16.50;99.90;;;;;;5055003;28;20654;-69
2023/05/09 07:20:14;;;;;;;1.47;1.37;;;16.60;99.90;;;;;;5055165;28;20198;-71
2023/05/09 07:22:40;;;;;;;0.83;0.83;;;16.90;99.90;;;;;;5055595;28;20158;-72
2023/05/09 07:25:07;;;;;;;1.17;0.97;;;17.20;99.90;;;;;;5055184;28;20712;-70
2023/05/09 07:27:33;;;;;;;0.90;0.87;;;17.30;99.90;;;;;;5054525;28;20332;-71
2023/05/09 07:29:58;;;;;;;0.90;0.90;;;17.30;99.90;;;;;;5055104;28;20889;-70
2023/05/09 07:32:27;;;;;;;1.43;1.33;;;17.40;99.90;;;;;;5053788;28;20182;-71
2023/05/09 07:34:53;;;;;;;0.97;0.97;;;17.20;99.90;;;;;;5055102;28;20700;-71
2023/05/09 07:37:19;;;;;;;0.77;0.77;;;17.10;99.90;;;;;;5054871;28;20589;-71
2023/05/09 07:39:46;;;;;;;0.57;0.57;;;17.10;99.90;;;;;;5054942;28;20916;-72
2023/05/09 07:42:12;;;;;;;1.70;1.40;;;17.10;99.90;;;;;;5053724;28;20176;-70
2023/05/09 07:44:38;;;;;;;1.60;1.17;;;16.90;99.90;;;;;;5054958;28;20409;-72
2023/05/09 07:47:04;;;;;;;1.60;1.50;;;16.90;99.90;;;;;;5053933;28;20528;-70
2023/05/09 07:49:30;;;;;;;1.93;1.83;;;16.80;99.90;;;;;;5054725;28;20181;-71
2023/05/09 07:51:56;;;;;;;1.20;1.20;;;16.90;99.90;;;;;;5054946;28;20759;-71
2023/05/09 07:54:21;;;;;;;1.77;1.67;;;17.20;99.90;;;;;;5054646;28;20413;-70
2023/05/09 07:56:47;;;;;;;2.80;1.43;;;17.50;99.90;;;;;;5054303;28;20186;-72
2023/05/09 07:59:13;;;;;;;3.10;2.20;;;17.60;99.90;;;;;;5054775;28;20199;-70
2023/05/09 08:01:38;;;;;;;1.50;1.40;;;17.70;99.90;;;;;;5054691;28;20542;-72
2023/05/09 08:04:07;;;;;;;1.70;1.60;;;17.90;99.90;;;;;;5054576;28;20197;-71
2023/05/09 08:06:33;;;;;;;1.17;0.70;;;18.40;99.80;;;;;;5054407;28;20522;-71
2023/05/09 08:08:59;;;;;;;1.63;1.23;;;18.90;98.50;;;;;;5054289;28;20498;-71
2023/05/09 08:11:25;;;;;;;0.60;0.60;;;18.80;97.20;;;;;;5053156;28;20423;-71
2023/05/09 08:13:50;;;;;;;0.93;0.93;;;18.40;97.60;;;;;;5054459;28;20259;-70
2023/05/09 08:16:16;;;;;;;0.83;0.83;;;18.00;98.00;;;;;;5054171;28;20475;-70
2023/05/09 08:18:42;;;;;;;1.20;1.20;;;17.70;98.80;;;;;;5053912;28;20664;-70
2023/05/09 08:21:08;;;;;;;1.00;1.00;;;17.60;99.20;;;;;;5054190;28;20232;-71
2023/05/09 08:23:34;;;;;;;0.73;0.73;;;17.60;99.20;;;;;;5054242;28;20833;-71
2023/05/09 08:26:00;;;;;;;0.97;0.87;;;17.60;99.50;;;;;;5053959;28;20194;-70
2023/05/09 08:28:27;;;;;;;0.83;0.83;;;17.60;99.70;;;;;;5053969;28;20174;-71
2023/05/09 08:30:53;;;;;;;0.73;0.70;;;17.60;99.80;;;;;;5054202;28;20536;-71
2023/05/09 08:33:19;;;;;;;1.43;1.33;;;17.50;99.90;;;;;;5053867;28;20417;-70
2023/05/09 08:35:52;;;;;;;0.97;0.93;;;17.40;99.90;;;;;;5053815;28;20924;-71
2023/05/09 08:38:18;;;;;;;0.47;0.47;;;17.40;99.90;;;;;;5053679;28;20478;-71
2023/05/09 08:40:44;;;;;;;1.43;1.17;;;17.40;99.90;;;;;;5053855;28;20400;-71
2023/05/09 08:43:11;;;;;;;0.57;0.57;;;17.30;99.90;;;;;;5053991;28;20450;-70
2023/05/09 08:45:58;;;;;;;15.90;1.57;;;17.60;99.90;;;;;;5053859;28;20756;-72
2023/05/09 08:48:25;;;;;;;1.03;0.70;;;17.60;99.80;;;;;;5053582;28;20550;-71
2023/05/09 08:50:52;;;;;;;1.33;1.23;;;17.80;98.70;;;;;;5053672;28;20430;-70
2023/05/09 08:53:20;;;;;;;1.17;1.03;;;17.90;98.50;;;;;;5054002;28;20425;-72
2023/05/09 08:55:46;;;;;;;1.03;1.03;;;18.00;98.70;;;;;;5053517;28;20959;-72
2023/05/09 08:58:12;;;;;;;0.60;0.60;;;18.20;97.90;;;;;;5052392;28;20442;-71
2023/05/09 09:00:40;;;;;;;0.43;0.43;;;18.40;98.30;;;;;;5053503;28;20173;-72
2023/05/09 09:03:06;;;;;;;1.10;1.10;;;18.60;98.20;;;;;;5052653;28;20778;-72
2023/05/09 09:05:36;;;;;;;0.60;0.60;;;19.10;99.90;;;;;;5046739;28;20416;-71
2023/05/09 09:08:05;;;;;;;0.73;0.73;;;18.90;96.40;;;;;;5053123;28;20785;-70
2023/05/09 09:10:32;;;;;;;0.90;0.90;;;19.10;96.40;;;;;;5051022;28;20426;-71
2023/05/09 09:12:59;;;;;;;1.67;1.57;;;19.30;96.00;;;;;;5053583;28;20409;-72
2023/05/09 09:15:28;;;;;;;1.37;1.27;;;19.60;97.70;;;;;;5053409;28;20491;-71
2023/05/09 09:17:56;;;;;;;0.83;0.83;;;19.60;94.80;;;;;;5053361;28;20448;-73
2023/05/09 09:20:26;;;;;;;0.50;0.50;;;19.30;94.80;;;;;;5053789;28;20491;-71
2023/05/09 09:22:57;;;;;;;1.10;1.10;;;19.00;95.30;;;;;;5053568;28;20411;-70
2023/05/09 09:25:23;;;;;;;0.60;0.60;;;19.00;95.60;;;;;;5053569;28;20404;-71
2023/05/09 09:27:49;;;;;;;0.77;0.77;;;18.90;95.90;;;;;;5053142;28;20420;-71
2023/05/09 09:30:15;;;;;;;1.33;1.33;;;19.20;95.80;;;;;;5053522;28;20175;-71
2023/05/09 09:32:41;;;;;;;0.60;0.60;;;20.00;94.40;;;;;;5053436;28;20185;-72
2023/05/09 09:35:08;;;;;;;2.30;0.87;;;20.90;93.10;;;;;;5053614;28;20482;-72
2023/05/09 09:37:39;;;;;;;0.73;0.73;;;21.40;91.50;;;;;;5053155;28;20211;-71
2023/05/09 09:40:10;;;;;;;1.27;0.90;;;20.90;90.70;;;;;;5053127;28;20778;-71
2023/05/09 09:42:47;;;;;;;0.40;0.40;;;20.30;91.90;;;;;;5051035;28;20411;-71
2023/05/09 09:45:15;;;;;;;0.53;0.53;;;20.20;92.60;;;;;;5053207;28;20678;-72
2023/05/09 09:47:45;;;;;;;1.03;0.93;;;20.60;93.00;;;;;;5053075;28;20463;-71
2023/05/09 09:50:16;;;;;;;0.80;0.80;;;21.20;92.20;;;;;;5052968;28;20450;-71
2023/05/09 09:52:52;;;;;;;0.50;0.50;;;21.80;91.00;;;;;;5053064;28;20389;-71
2023/05/09 09:55:19;;;;;;;0.50;0.50;;;21.90;90.10;;;;;;5053233;28;20384;-71
2023/05/09 09:57:47;;;;;;;0.80;0.80;;;22.20;90.30;;;;;;5052682;28;20599;-70
2023/05/09 10:00:14;;;;;;;0.53;0.53;;;22.90;88.60;;;;;;5050502;28;20890;-71
2023/05/09 10:02:53;;;;;;;0.50;0.50;;;23.10;85.40;;;;;;5052895;28;20884;-71
2023/05/09 10:05:20;;;;;;;0.60;0.60;;;22.60;85.40;;;;;;5052893;28;20415;-70
2023/05/09 10:07:59;;;;;;;0.60;0.60;;;22.40;87.90;;;;;;5049760;28;20967;-70
2023/05/09 10:10:30;;;;;;;0.80;0.80;;;22.50;87.00;;;;;;5055700;28;20863;-70
2023/05/09 10:13:01;;;;;;;0.40;0.40;;;22.50;86.70;;;;;;5056065;28;20495;-70
2023/05/09 10:15:30;;;;;;;0.80;0.80;;;22.40;92.50;;;;;;5054599;28;20456;-70
2023/05/09 10:17:57;;;;;;;0.70;0.70;;;22.60;86.70;;;;;;5056327;28;20444;-70
2023/05/09 10:20:24;;;;;;;0.70;0.70;;;22.50;86.10;;;;;;5056323;28;20882;-70
2023/05/09 10:22:55;;;;;;;0.50;0.50;;;22.60;85.90;;;;;;5055390;28;20404;-70
2023/05/09 10:25:26;;;;;;;0.43;0.43;;;22.70;86.70;;;;;;5056110;28;20372;-70
2023/05/09 10:27:55;;;;;;;0.80;0.80;;;22.70;85.40;;;;;;5056019;28;20503;-70
2023/05/09 10:30:33;;;;;;;0.57;0.57;;;22.40;83.70;;;;;;5056342;28;20401;-69
2023/05/09 10:33:06;;;;;;;0.97;0.97;;;21.60;84.20;;;;;;5056242;28;20487;-69
2023/05/09 10:35:36;;;;;;;0.80;0.80;;;21.60;91.20;;;;;;5056279;28;20428;-70
2023/05/09 10:38:02;;;;;;;1.00;0.83;;;21.60;87.00;;;;;;5055871;28;20451;-70
2023/05/09 10:40:29;;;;;;;0.50;0.40;;;21.60;86.30;;;;;;5056223;28;20408;-69
2023/05/09 10:42:54;;;;;;;0.50;0.50;;;21.60;86.40;;;;;;5056063;28;20901;-70
2023/05/09 10:45:21;;;;;;;0.70;0.70;;;21.40;88.40;;;;;;5056023;28;20412;-70
2023/05/09 10:47:49;;;;;;;1.17;0.60;;;21.30;88.60;;;;;;5055622;28;20186;-70
2023/05/09 10:50:16;;;;;;;0.40;0.40;;;21.40;88.80;;;;;;5055925;28;20433;-70
2023/05/09 10:53:03;;;;;;;0.57;0.57;;;21.40;90.00;;;;;;5055965;28;20396;-69
2023/05/09 10:55:48;;;;;;;0.90;0.87;;;21.70;87.30;;;;;;5056040;28;20379;-69
2023/05/09 10:58:25;;;;;;;1.33;0.50;;;21.70;86.80;;;;;;5055544;28;20423;-70
2023/05/09 11:00:55;;;;;;;0.70;0.70;;;21.80;86.90;;;;;;5055876;28;20371;-70
2023/05/09 11:03:21;;;;;;;0.93;0.90;;;22.00;87.80;;;;;;5055631;28;20409;-70
2023/05/09 11:05:50;;;;;;;0.60;0.60;;;22.00;86.50;;;;;;5055494;28;20428;-70
2023/05/09 11:08:26;;;;;;;0.90;0.90;;;22.10;87.90;;;;;;5054972;28;20807;-70
2023/05/09 11:11:05;;;;;;;1.40;1.40;;;22.10;86.10;;;;;;5055717;28;20450;-70
2023/05/09 11:13:35;;;;;;;1.60;0.50;;;22.10;84.60;;;;;;5054241;28;20883;-70
2023/05/09 11:16:00;;;;;;;0.60;0.60;;;22.10;85.60;;;;;;5055506;28;20410;-70
2023/05/09 11:18:32;;;;;;;0.50;0.50;;;22.10;84.80;;;;;;5055096;28;20427;-70
2023/05/09 11:21:07;;;;;;;1.80;0.50;;;22.00;85.80;;;;;;5054624;28;20364;-70
2023/05/09 11:23:33;;;;;;;6.73;1.10;;;22.20;86.90;;;;;;5055496;28;20400;-70
2023/05/09 11:26:06;;;;;;;0.40;0.40;;;22.10;85.70;;;;;;5055164;28;20470;-70
2023/05/09 11:28:35;;;;;;;0.40;0.40;;;22.00;85.50;;;;;;5054979;28;20264;-70
2023/05/09 11:31:14;;;;;;;0.70;0.70;;;21.90;85.90;;;;;;5055258;28;20404;-70
2023/05/09 11:33:41;;;;;;;0.40;0.40;;;21.70;87.80;;;;;;5055159;28;20404;-70
2023/05/09 11:36:38;;;;;;;0.50;0.50;;;21.80;87.90;;;;;;5054978;28;20824;-70
2023/05/09 11:39:09;;;;;;;1.13;1.03;;;21.80;87.60;;;;;;5054704;28;20448;-70
2023/05/09 11:41:47;;;;;;;0.50;0.43;;;22.00;85.50;;;;;;5054827;28;20401;-69
2023/05/09 11:44:19;;;;;;;0.83;0.70;;;22.20;85.30;;;;;;5054809;28;20542;-70
2023/05/09 11:46:47;;;;;;;0.50;0.50;;;22.40;84.70;;;;;;5054538;28;20443;-70
2023/05/09 11:49:14;;;;;;;0.60;0.60;;;22.60;84.80;;;;;;5053194;28;20989;-70
2023/05/09 11:51:40;;;;;;;0.60;0.60;;;22.60;85.40;;;;;;5054705;28;20561;-70
2023/05/09 11:54:07;;;;;;;0.47;0.47;;;22.40;84.90;;;;;;5054739;28;20371;-70
2023/05/09 11:56:38;;;;;;;0.47;0.47;;;22.30;85.30;;;;;;5054630;28;20399;-70
2023/05/09 11:59:05;;;;;;;0.50;0.50;;;22.20;83.40;;;;;;5054346;28;20456;-70
2023/05/09 12:01:31;;;;;;;0.80;0.80;;;22.30;85.50;;;;;;5054668;28;20378;-70
2023/05/09 12:03:58;;;;;;;1.43;1.33;;;22.60;86.30;;;;;;5054489;28;20474;-70
2023/05/09 12:06:25;;;;;;;0.63;0.63;;;22.90;85.40;;;;;;5054317;28;20188;-70
2023/05/09 12:08:51;;;;;;;0.67;0.47;;;23.00;82.30;;;;;;5054280;28;20413;-70
2023/05/09 12:11:17;;;;;;;0.50;0.50;;;23.10;80.90;;;;;;5054291;28;20776;-70
2023/05/09 12:13:47;;;;;;;0.93;0.83;;;23.00;79.20;;;;;;5054404;28;20412;-70
2023/05/09 12:16:13;;;;;;;0.43;0.43;;;22.70;78.60;;;;;;5054300;28;20225;-70
2023/05/09 12:18:50;;;;;;;0.83;0.83;;;22.60;78.10;;;;;;5054007;28;20546;-70
2023/05/09 12:21:17;;;;;;;0.50;0.50;;;22.30;81.10;;;;;;5054290;28;20483;-70
2023/05/09 12:23:43;;;;;;;0.40;0.40;;;22.00;80.60;;;;;;5054340;28;20759;-70
2023/05/09 12:26:09;;;;;;;0.43;0.43;;;21.80;79.60;;;;;;5054172;28;20447;-70
2023/05/09 12:28:35;;;;;;;0.67;0.67;;;21.70;79.00;;;;;;5053785;28;20416;-70
2023/05/09 12:31:02;;;;;;;0.60;0.60;;;21.80;80.70;;;;;;5054128;28;20916;-69
2023/05/09 12:33:29;;;;;;;0.43;0.43;;;21.90;79.30;;;;;;5053741;28;20459;-70
2023/05/09 12:36:09;;;;;;;0.73;0.73;;;22.10;78.60;;;;;;5053797;28;20467;-70
2023/05/09 12:38:36;;;;;;;0.60;0.60;;;22.20;79.50;;;;;;5053817;28;20493;-69
2023/05/09 12:41:04;;;;;;;1.20;1.20;;;22.40;78.90;;;;;;5053792;28;20919;-70
2023/05/09 12:43:31;;;;;;;0.50;0.50;;;22.50;80.00;;;;;;5053716;28;20439;-70
2023/05/09 12:45:58;;;;;;;0.43;0.43;;;22.40;79.50;;;;;;5053828;28;20428;-70
2023/05/09 12:48:24;;;;;;;0.40;0.40;;;22.50;77.00;;;;;;5053657;28;20872;-70
2023/05/09 12:50:50;;;;;;;0.40;0.40;;;22.50;76.90;;;;;;5053455;28;20407;-70